sensor_id;sensor_type;location;lat;lon;timestamp;pressure;altitude;pressure_sealevel;temperature;humidity
44926;BME280;30662;51.210;7.656;2023-04-05T00:01:30;149515.53;;;2.81;61.81
44926;BME280;30662;51.210;7.656;2023-04-05T00:03:56;149494.16;;;2.72;60.66
44926;BME280;30662;51.210;7.656;2023-04-05T00:06:27;149492.91;;;2.71;61.90
44926;BME280;30662;51.210;7.656;2023-04-05T00:08:58;149485.38;;;2.68;61.21
44926;BME280;30662;51.210;7.656;2023-04-05T00:11:26;149467.75;;;2.61;61.09
44926;BME280;30662;51.210;7.656;2023-04-05T00:13:52;149455.16;;;2.56;62.01
44926;BME280;30662;51.210;7.656;2023-04-05T00:16:18;149447.59;;;2.53;62.06
44926;BME280;30662;51.210;7.656;2023-04-05T00:18:45;149491.66;;;2.71;61.94
44926;BME280;30662;51.210;7.656;2023-04-05T00:21:15;149451.41;;;2.55;62.25
44926;BME280;30662;51.210;7.656;2023-04-05T00:23:41;149455.16;;;2.56;63.23
44926;BME280;30662;51.210;7.656;2023-04-05T00:26:10;149490.41;;;2.70;62.36
44926;BME280;30662;51.210;7.656;2023-04-05T00:28:36;149506.75;;;2.77;61.45
44926;BME280;30662;51.210;7.656;2023-04-05T00:31:03;149542.00;;;2.91;59.90
44926;BME280;30662;51.210;7.656;2023-04-05T00:33:30;149490.41;;;2.70;60.87
44926;BME280;30662;51.210;7.656;2023-04-05T00:35:56;149448.88;;;2.54;62.78
44926;BME280;30662;51.210;7.656;2023-04-05T00:38:22;149462.69;;;2.59;62.17
44926;BME280;30662;51.210;7.656;2023-04-05T00:40:47;149466.50;;;2.61;61.77
44926;BME280;30662;51.210;7.656;2023-04-05T00:43:13;149446.34;;;2.53;62.95
44926;BME280;30662;51.210;7.656;2023-04-05T00:45:40;149428.72;;;2.45;62.18
44926;BME280;30662;51.210;7.656;2023-04-05T00:48:07;149422.44;;;2.43;62.35
44926;BME280;30662;51.210;7.656;2023-04-05T00:50:33;149401.06;;;2.34;62.50
44926;BME280;30662;51.210;7.656;2023-04-05T00:52:59;149394.75;;;2.32;62.15
44926;BME280;30662;51.210;7.656;2023-04-05T00:55:25;149333.13;;;2.07;64.18
44926;BME280;30662;51.210;7.656;2023-04-05T00:57:54;149355.75;;;2.16;64.14
44926;BME280;30662;51.210;7.656;2023-04-05T01:00:21;149348.22;;;2.13;64.42
44926;BME280;30662;51.210;7.656;2023-04-05T01:02:51;149370.88;;;2.22;63.50
44926;BME280;30662;51.210;7.656;2023-04-05T01:05:43;149329.38;;;2.05;64.52
44926;BME280;30662;51.210;7.656;2023-04-05T01:08:36;149344.47;;;2.11;64.28
44926;BME280;30662;51.210;7.656;2023-04-05T01:11:05;149300.44;;;1.93;65.08
44926;BME280;30662;51.210;7.656;2023-04-05T01:13:31;149285.31;;;1.87;65.19
44926;BME280;30662;51.210;7.656;2023-04-05T01:15:58;149313.00;;;1.99;64.75
44926;BME280;30662;51.210;7.656;2023-04-05T01:18:25;149316.78;;;2.00;64.61
44926;BME280;30662;51.210;7.656;2023-04-05T01:21:02;149287.88;;;1.88;65.21
44926;BME280;30662;51.210;7.656;2023-04-05T01:26:32;149257.69;;;1.76;65.91
44926;BME280;30662;51.210;7.656;2023-04-05T01:31:59;149233.78;;;1.66;66.44
44926;BME280;30662;51.210;7.656;2023-04-05T01:37:15;149292.91;;;1.90;65.73
44926;BME280;30662;51.210;7.656;2023-04-05T01:39:43;149284.06;;;1.87;65.34
44926;BME280;30662;51.210;7.656;2023-04-05T01:42:12;149335.63;;;2.08;63.87
44926;BME280;30662;51.210;7.656;2023-04-05T01:44:38;149284.06;;;1.87;64.70
44926;BME280;30662;51.210;7.656;2023-04-05T01:47:04;149305.50;;;1.96;63.58
44926;BME280;30662;51.210;7.656;2023-04-05T01:49:30;149263.97;;;1.79;64.22
44926;BME280;30662;51.210;7.656;2023-04-05T01:51:56;149328.13;;;2.05;63.28
44926;BME280;30662;51.210;7.656;2023-04-05T01:54:22;149253.94;;;1.75;64.27
44926;BME280;30662;51.210;7.656;2023-04-05T01:56:47;149279.06;;;1.85;64.10
44926;BME280;30662;51.210;7.656;2023-04-05T01:59:13;149266.47;;;1.80;64.37
44926;BME280;30662;51.210;7.656;2023-04-05T02:01:39;149300.44;;;1.93;63.75
44926;BME280;30662;51.210;7.656;2023-04-05T02:04:05;149263.97;;;1.79;64.10
44926;BME280;30662;51.210;7.656;2023-04-05T02:06:31;149218.72;;;1.60;65.31
44926;BME280;30662;51.210;7.656;2023-04-05T02:08:57;149222.47;;;1.62;65.80
44926;BME280;30662;51.210;7.656;2023-04-05T02:11:23;149222.47;;;1.62;65.55
44926;BME280;30662;51.210;7.656;2023-04-05T02:13:49;149202.38;;;1.54;65.68
44926;BME280;30662;51.210;7.656;2023-04-05T02:16:14;149233.78;;;1.66;65.59
44926;BME280;30662;51.210;7.656;2023-04-05T02:18:41;149230.00;;;1.65;65.77
44926;BME280;30662;51.210;7.656;2023-04-05T02:21:08;149275.28;;;1.83;64.67
44926;BME280;30662;51.210;7.656;2023-04-05T02:23:36;149175.94;;;1.43;65.77
44926;BME280;30662;51.210;7.656;2023-04-05T02:26:02;149203.63;;;1.54;66.06
44926;BME280;30662;51.210;7.656;2023-04-05T02:28:28;149177.19;;;1.44;66.32
44926;BME280;30662;51.210;7.656;2023-04-05T02:30:54;149188.53;;;1.48;66.20
44926;BME280;30662;51.210;7.656;2023-04-05T02:33:20;149187.28;;;1.48;65.39
44926;BME280;30662;51.210;7.656;2023-04-05T02:35:50;149202.38;;;1.54;65.48
44926;BME280;30662;51.210;7.656;2023-04-05T02:38:17;149182.25;;;1.46;65.30
44926;BME280;30662;51.210;7.656;2023-04-05T02:40:45;149174.69;;;1.43;65.81
44926;BME280;30662;51.210;7.656;2023-04-05T02:43:11;149209.91;;;1.57;63.89
44926;BME280;30662;51.210;7.656;2023-04-05T02:45:37;149178.47;;;1.44;64.75
44926;BME280;30662;51.210;7.656;2023-04-05T02:48:03;149179.72;;;1.45;65.35
44926;BME280;30662;51.210;7.656;2023-04-05T02:50:29;149168.44;;;1.40;65.36
44926;BME280;30662;51.210;7.656;2023-04-05T02:52:55;149121.91;;;1.21;66.44
44926;BME280;30662;51.210;7.656;2023-04-05T02:55:21;149120.66;;;1.21;66.05
44926;BME280;30662;51.210;7.656;2023-04-05T02:57:47;149138.25;;;1.28;66.08
44926;BME280;30662;51.210;7.656;2023-04-05T03:00:13;149121.91;;;1.21;66.49
44926;BME280;30662;51.210;7.656;2023-04-05T03:02:39;149143.25;;;1.30;65.86
44926;BME280;30662;51.210;7.656;2023-04-05T03:05:05;149140.75;;;1.29;65.96
44926;BME280;30662;51.210;7.656;2023-04-05T03:07:32;149128.22;;;1.24;66.45
44926;BME280;30662;51.210;7.656;2023-04-05T03:09:58;149091.78;;;1.09;67.25
44926;BME280;30662;51.210;7.656;2023-04-05T03:12:24;149109.38;;;1.16;66.46
44926;BME280;30662;51.210;7.656;2023-04-05T03:14:50;149114.38;;;1.18;67.03
44926;BME280;30662;51.210;7.656;2023-04-05T03:17:16;149163.41;;;1.38;65.61
44926;BME280;30662;51.210;7.656;2023-04-05T03:19:42;149144.56;;;1.30;65.70
44926;BME280;30662;51.210;7.656;2023-04-05T03:22:10;149129.47;;;1.24;66.34
44926;BME280;30662;51.210;7.656;2023-04-05T03:24:36;149168.44;;;1.40;65.67
44926;BME280;30662;51.210;7.656;2023-04-05T03:27:02;149116.88;;;1.19;65.67
44926;BME280;30662;51.210;7.656;2023-04-05T03:29:30;149119.41;;;1.20;66.09
44926;BME280;30662;51.210;7.656;2023-04-05T03:31:57;149123.16;;;1.22;65.78
44926;BME280;30662;51.210;7.656;2023-04-05T03:34:24;149099.28;;;1.12;66.00
44926;BME280;30662;51.210;7.656;2023-04-05T03:36:56;149129.47;;;1.24;65.69
44926;BME280;30662;51.210;7.656;2023-04-05T03:39:22;149139.50;;;1.28;65.73
44926;BME280;30662;51.210;7.656;2023-04-05T03:41:48;149103.06;;;1.14;66.32
44926;BME280;30662;51.210;7.656;2023-04-05T03:44:13;149072.88;;;1.01;66.63
44926;BME280;30662;51.210;7.656;2023-04-05T03:46:39;149130.72;;;1.25;66.28
44926;BME280;30662;51.210;7.656;2023-04-05T03:49:07;149138.25;;;1.28;65.59
44926;BME280;30662;51.210;7.656;2023-04-05T03:51:33;149120.66;;;1.21;65.68
44926;BME280;30662;51.210;7.656;2023-04-05T03:53:59;149145.81;;;1.31;65.34
44926;BME280;30662;51.210;7.656;2023-04-05T03:56:25;149121.91;;;1.21;65.60
44926;BME280;30662;51.210;7.656;2023-04-05T03:58:53;149135.75;;;1.27;66.23
44926;BME280;30662;51.210;7.656;2023-04-05T04:01:19;149147.06;;;1.31;65.74
44926;BME280;30662;51.210;7.656;2023-04-05T04:03:46;149133.22;;;1.26;65.41
44926;BME280;30662;51.210;7.656;2023-04-05T04:06:12;149072.88;;;1.01;66.15
44926;BME280;30662;51.210;7.656;2023-04-05T04:08:38;149061.59;;;0.97;66.92
44926;BME280;30662;51.210;7.656;2023-04-05T04:11:04;149050.28;;;0.92;67.15
44926;BME280;30662;51.210;7.656;2023-04-05T04:13:31;149066.63;;;0.99;67.13
44926;BME280;30662;51.210;7.656;2023-04-05T04:15:56;149103.06;;;1.14;66.57
44926;BME280;30662;51.210;7.656;2023-04-05T04:18:22;149095.53;;;1.10;66.54
44926;BME280;30662;51.210;7.656;2023-04-05T04:20:48;149036.44;;;0.87;67.98
44926;BME280;30662;51.210;7.656;2023-04-05T04:23:16;149071.63;;;1.01;67.74
44926;BME280;30662;51.210;7.656;2023-04-05T04:25:44;149044.00;;;0.90;67.66
44926;BME280;30662;51.210;7.656;2023-04-05T04:28:10;149055.34;;;0.94;68.12
44926;BME280;30662;51.210;7.656;2023-04-05T04:30:37;149047.78;;;0.91;68.32
44926;BME280;30662;51.210;7.656;2023-04-05T04:33:03;149065.34;;;0.98;67.79
44926;BME280;30662;51.210;7.656;2023-04-05T04:35:32;149010.06;;;0.76;69.06
44926;BME280;30662;51.210;7.656;2023-04-05T04:38:01;149005.06;;;0.74;69.90
44926;BME280;30662;51.210;7.656;2023-04-05T04:40:35;149045.25;;;0.90;69.34
44926;BME280;30662;51.210;7.656;2023-04-05T04:43:09;148995.00;;;0.70;70.59
44926;BME280;30662;51.210;7.656;2023-04-05T04:45:39;149003.81;;;0.73;70.72
44926;BME280;30662;51.210;7.656;2023-04-05T04:48:05;149013.84;;;0.77;70.68
44926;BME280;30662;51.210;7.656;2023-04-05T04:50:33;148984.97;;;0.66;71.18
44926;BME280;30662;51.210;7.656;2023-04-05T04:52:59;148966.13;;;0.58;72.44
44926;BME280;30662;51.210;7.656;2023-04-05T04:55:29;148938.47;;;0.47;73.98
44926;BME280;30662;51.210;7.656;2023-04-05T04:57:58;148925.91;;;0.42;74.86
44926;BME280;30662;51.210;7.656;2023-04-05T05:00:24;148927.16;;;0.42;75.07
44926;BME280;30662;51.210;7.656;2023-04-05T05:02:51;148947.25;;;0.50;75.10
44926;BME280;30662;51.210;7.656;2023-04-05T05:05:18;148939.72;;;0.47;75.09
44926;BME280;30662;51.210;7.656;2023-04-05T05:07:52;148959.81;;;0.55;74.37
44926;BME280;30662;51.210;7.656;2023-04-05T05:10:19;148968.63;;;0.59;74.45
44926;BME280;30662;51.210;7.656;2023-04-05T05:12:45;148959.81;;;0.55;74.38
44926;BME280;30662;51.210;7.656;2023-04-05T05:15:11;148930.97;;;0.44;74.98
44926;BME280;30662;51.210;7.656;2023-04-05T05:17:37;148909.56;;;0.35;75.52
44926;BME280;30662;51.210;7.656;2023-04-05T05:20:05;148908.31;;;0.35;76.16
44926;BME280;30662;51.210;7.656;2023-04-05T05:22:36;148910.81;;;0.36;75.32
44926;BME280;30662;51.210;7.656;2023-04-05T05:25:03;148946.00;;;0.50;74.97
44926;BME280;30662;51.210;7.656;2023-04-05T05:27:30;148939.72;;;0.47;75.24
44926;BME280;30662;51.210;7.656;2023-04-05T05:29:56;148920.88;;;0.40;75.75
44926;BME280;30662;51.210;7.656;2023-04-05T05:32:22;148909.56;;;0.35;75.50
44926;BME280;30662;51.210;7.656;2023-04-05T05:34:48;148938.47;;;0.47;74.43
44926;BME280;30662;51.210;7.656;2023-04-05T05:37:14;148908.31;;;0.35;75.30
44926;BME280;30662;51.210;7.656;2023-04-05T05:39:41;148974.91;;;0.62;74.92
44926;BME280;30662;51.210;7.656;2023-04-05T05:42:09;148983.72;;;0.65;74.42
44926;BME280;30662;51.210;7.656;2023-04-05T05:44:35;148986.22;;;0.66;73.95
44926;BME280;30662;51.210;7.656;2023-04-05T05:47:01;148973.66;;;0.61;74.37
44926;BME280;30662;51.210;7.656;2023-04-05T05:49:28;148958.56;;;0.55;74.65
44926;BME280;30662;51.210;7.656;2023-04-05T05:51:54;148961.06;;;0.56;74.77
44926;BME280;30662;51.210;7.656;2023-04-05T05:54:21;148978.66;;;0.63;74.34
44926;BME280;30662;51.210;7.656;2023-04-05T05:56:47;148962.31;;;0.57;75.21
44926;BME280;30662;51.210;7.656;2023-04-05T05:59:13;148977.41;;;0.63;75.13
44926;BME280;30662;51.210;7.656;2023-04-05T06:01:39;149010.06;;;0.76;74.48
44926;BME280;30662;51.210;7.656;2023-04-05T06:04:08;149037.75;;;0.87;73.78
44926;BME280;30662;51.210;7.656;2023-04-05T06:06:34;149077.94;;;1.03;72.79
44926;BME280;30662;51.210;7.656;2023-04-05T06:09:03;149042.75;;;0.89;73.68
44926;BME280;30662;51.210;7.656;2023-04-05T06:11:29;149069.13;;;1.00;73.74
44926;BME280;30662;51.210;7.656;2023-04-05T06:13:54;149051.53;;;0.93;74.26
44926;BME280;30662;51.210;7.656;2023-04-05T06:16:21;149075.44;;;1.02;74.23
44926;BME280;30662;51.210;7.656;2023-04-05T06:18:47;149096.78;;;1.11;73.67
44926;BME280;30662;51.210;7.656;2023-04-05T06:21:13;149123.16;;;1.22;73.43
44926;BME280;30662;51.210;7.656;2023-04-05T06:23:40;149131.97;;;1.25;72.56
44926;BME280;30662;51.210;7.656;2023-04-05T06:26:07;149129.47;;;1.24;73.35
44926;BME280;30662;51.210;7.656;2023-04-05T06:28:33;149103.06;;;1.14;74.52
44926;BME280;30662;51.210;7.656;2023-04-05T06:30:59;149115.63;;;1.19;74.36
44926;BME280;30662;51.210;7.656;2023-04-05T06:33:25;149131.97;;;1.25;75.38
44926;BME280;30662;51.210;7.656;2023-04-05T06:35:51;149133.22;;;1.26;75.93
44926;BME280;30662;51.210;7.656;2023-04-05T06:38:17;149208.63;;;1.56;73.96
44926;BME280;30662;51.210;7.656;2023-04-05T06:40:43;149137.00;;;1.27;75.57
44926;BME280;30662;51.210;7.656;2023-04-05T06:43:09;149109.38;;;1.16;76.76
44926;BME280;30662;51.210;7.656;2023-04-05T06:45:36;149196.06;;;1.51;75.87
44926;BME280;30662;51.210;7.656;2023-04-05T06:48:02;149184.78;;;1.47;75.50
44926;BME280;30662;51.210;7.656;2023-04-05T06:50:28;149188.53;;;1.48;75.34
44926;BME280;30662;51.210;7.656;2023-04-05T06:52:53;149170.94;;;1.41;75.38
44926;BME280;30662;51.210;7.656;2023-04-05T06:55:19;149163.41;;;1.38;75.64
44926;BME280;30662;51.210;7.656;2023-04-05T06:57:46;149226.25;;;1.63;75.32
44926;BME280;30662;51.210;7.656;2023-04-05T07:00:13;149230.00;;;1.65;75.64
44926;BME280;30662;51.210;7.656;2023-04-05T07:02:40;149247.63;;;1.72;74.77
44926;BME280;30662;51.210;7.656;2023-04-05T07:05:06;149326.88;;;2.04;73.17
44926;BME280;30662;51.210;7.656;2023-04-05T07:07:37;149299.16;;;1.93;73.12
44926;BME280;30662;51.210;7.656;2023-04-05T07:10:04;149333.13;;;2.07;73.45
44926;BME280;30662;51.210;7.656;2023-04-05T07:12:31;149359.56;;;2.17;72.22
44926;BME280;30662;51.210;7.656;2023-04-05T07:14:58;149372.13;;;2.22;72.47
44926;BME280;30662;51.210;7.656;2023-04-05T07:17:24;149396.06;;;2.32;70.15
44926;BME280;30662;51.210;7.656;2023-04-05T07:19:50;149402.31;;;2.35;69.27
44926;BME280;30662;51.210;7.656;2023-04-05T07:22:16;149435.03;;;2.48;69.48
44926;BME280;30662;51.210;7.656;2023-04-05T07:24:43;149441.31;;;2.51;69.59
44926;BME280;30662;51.210;7.656;2023-04-05T07:27:09;149480.31;;;2.66;67.81
44926;BME280;30662;51.210;7.656;2023-04-05T07:29:35;149435.03;;;2.48;67.64
44926;BME280;30662;51.210;7.656;2023-04-05T07:32:06;149467.75;;;2.61;68.68
44926;BME280;30662;51.210;7.656;2023-04-05T07:34:33;149492.91;;;2.71;69.02
44926;BME280;30662;51.210;7.656;2023-04-05T07:36:59;149524.38;;;2.84;67.20
44926;BME280;30662;51.210;7.656;2023-04-05T07:39:25;149526.88;;;2.85;65.81
44926;BME280;30662;51.210;7.656;2023-04-05T07:41:51;149569.66;;;3.02;64.71
44926;BME280;30662;51.210;7.656;2023-04-05T07:44:17;149593.59;;;3.12;64.43
44926;BME280;30662;51.210;7.656;2023-04-05T07:46:43;149616.25;;;3.21;64.50
44926;BME280;30662;51.210;7.656;2023-04-05T07:49:14;149664.09;;;3.41;63.38
44926;BME280;30662;51.210;7.656;2023-04-05T07:51:40;149665.38;;;3.41;62.85
44926;BME280;30662;51.210;7.656;2023-04-05T07:54:07;149705.66;;;3.57;61.67
44926;BME280;30662;51.210;7.656;2023-04-05T07:56:35;149711.94;;;3.60;61.66
44926;BME280;30662;51.210;7.656;2023-04-05T07:59:01;149700.63;;;3.55;60.21
44926;BME280;30662;51.210;7.656;2023-04-05T08:01:27;149709.41;;;3.59;59.79
44926;BME280;30662;51.210;7.656;2023-04-05T08:03:54;149743.41;;;3.73;58.75
44926;BME280;30662;51.210;7.656;2023-04-05T08:06:22;149735.88;;;3.70;57.44
44926;BME280;30662;51.210;7.656;2023-04-05T08:08:49;149729.56;;;3.67;57.03
44926;BME280;30662;51.210;7.656;2023-04-05T08:11:15;149730.81;;;3.68;57.31
44926;BME280;30662;51.210;7.656;2023-04-05T08:13:41;149739.66;;;3.71;56.31
44926;BME280;30662;51.210;7.656;2023-04-05T08:16:08;149749.69;;;3.75;56.75
44926;BME280;30662;51.210;7.656;2023-04-05T08:18:34;149784.97;;;3.90;56.08
44926;BME280;30662;51.210;7.656;2023-04-05T08:21:00;149773.66;;;3.85;57.21
44926;BME280;30662;51.210;7.656;2023-04-05T08:23:26;149790.03;;;3.92;56.47
44926;BME280;30662;51.210;7.656;2023-04-05T08:25:52;149792.56;;;3.93;56.55
44926;BME280;30662;51.210;7.656;2023-04-05T08:28:19;149784.97;;;3.90;55.79
44926;BME280;30662;51.210;7.656;2023-04-05T08:30:45;149788.78;;;3.91;55.96
44926;BME280;30662;51.210;7.656;2023-04-05T08:33:11;149795.06;;;3.94;56.38
44926;BME280;30662;51.210;7.656;2023-04-05T08:35:37;149787.47;;;3.91;56.18
44926;BME280;30662;51.210;7.656;2023-04-05T08:38:04;149821.50;;;4.04;55.68
44926;BME280;30662;51.210;7.656;2023-04-05T08:40:44;149836.63;;;4.10;54.65
44926;BME280;30662;51.210;7.656;2023-04-05T08:43:55;149889.53;;;4.32;54.41
44926;BME280;30662;51.210;7.656;2023-04-05T08:46:25;149894.56;;;4.34;53.89
44926;BME280;30662;51.210;7.656;2023-04-05T08:48:51;149826.56;;;4.06;53.27
44926;BME280;30662;51.210;7.656;2023-04-05T08:51:21;149875.66;;;4.26;53.43
44926;BME280;30662;51.210;7.656;2023-04-05T08:53:47;149860.59;;;4.20;54.11
44926;BME280;30662;51.210;7.656;2023-04-05T08:56:22;149875.66;;;4.26;54.53
44926;BME280;30662;51.210;7.656;2023-04-05T08:59:10;149907.19;;;4.39;54.43
44926;BME280;30662;51.210;7.656;2023-04-05T09:01:40;149879.47;;;4.28;53.20
44926;BME280;30662;51.210;7.656;2023-04-05T09:04:11;149899.63;;;4.36;53.92
44926;BME280;30662;51.210;7.656;2023-04-05T09:06:39;149914.75;;;4.42;53.51
44926;BME280;30662;51.210;7.656;2023-04-05T09:09:06;149965.13;;;4.62;53.03
44926;BME280;30662;51.210;7.656;2023-04-05T09:11:33;149932.41;;;4.49;52.96
44926;BME280;30662;51.210;7.656;2023-04-05T09:14:04;149958.84;;;4.60;54.17
44926;BME280;30662;51.210;7.656;2023-04-05T09:16:32;150029.44;;;4.88;53.96
44926;BME280;30662;51.210;7.656;2023-04-05T09:18:58;150063.47;;;5.02;53.44
44926;BME280;30662;51.210;7.656;2023-04-05T09:21:26;149986.59;;;4.71;51.36
44926;BME280;30662;51.210;7.656;2023-04-05T09:23:54;150034.47;;;4.90;51.20
44926;BME280;30662;51.210;7.656;2023-04-05T09:26:22;150031.94;;;4.89;51.78
44926;BME280;30662;51.210;7.656;2023-04-05T09:28:49;150026.91;;;4.87;51.72
44926;BME280;30662;51.210;7.656;2023-04-05T09:31:35;150053.38;;;4.98;51.50
44926;BME280;30662;51.210;7.656;2023-04-05T09:34:02;150125.22;;;5.27;50.81
44926;BME280;30662;51.210;7.656;2023-04-05T09:36:34;150179.44;;;5.49;48.32
44926;BME280;30662;51.210;7.656;2023-04-05T09:39:06;150181.97;;;5.50;47.80
44926;BME280;30662;51.210;7.656;2023-04-05T09:41:33;150256.41;;;5.80;48.51
44926;BME280;30662;51.210;7.656;2023-04-05T09:43:59;150236.19;;;5.72;48.36
44926;BME280;30662;51.210;7.656;2023-04-05T09:46:33;150290.47;;;5.94;47.61
44926;BME280;30662;51.210;7.656;2023-04-05T09:49:02;150224.88;;;5.67;47.44
44926;BME280;30662;51.210;7.656;2023-04-05T09:51:36;150279.13;;;5.89;48.52
44926;BME280;30662;51.210;7.656;2023-04-05T09:54:09;150295.56;;;5.96;49.07
44926;BME280;30662;51.210;7.656;2023-04-05T09:56:37;150344.78;;;6.16;50.04
44926;BME280;30662;51.210;7.656;2023-04-05T09:59:10;150392.69;;;6.35;48.67
44926;BME280;30662;51.210;7.656;2023-04-05T10:01:38;150425.53;;;6.48;48.45
44926;BME280;30662;51.210;7.656;2023-04-05T10:04:07;150478.53;;;6.70;46.49
44926;BME280;30662;51.210;7.656;2023-04-05T10:06:52;150448.22;;;6.57;48.14
44926;BME280;30662;51.210;7.656;2023-04-05T10:09:18;150477.28;;;6.69;45.90
44926;BME280;30662;51.210;7.656;2023-04-05T10:11:44;150550.50;;;6.99;45.48
44926;BME280;30662;51.210;7.656;2023-04-05T10:14:10;150614.91;;;7.25;46.37
44926;BME280;30662;51.210;7.656;2023-04-05T10:16:58;150641.41;;;7.35;44.91
44926;BME280;30662;51.210;7.656;2023-04-05T10:19:40;150727.31;;;7.70;43.49
44926;BME280;30662;51.210;7.656;2023-04-05T10:22:14;150930.78;;;8.52;42.20
44926;BME280;30662;51.210;7.656;2023-04-05T10:24:48;150981.38;;;8.72;39.44
44926;BME280;30662;51.210;7.656;2023-04-05T10:27:41;151053.44;;;9.01;40.33
44926;BME280;30662;51.210;7.656;2023-04-05T10:30:07;151168.50;;;9.48;38.37
44926;BME280;30662;51.210;7.656;2023-04-05T10:32:47;151254.53;;;9.82;39.13
44926;BME280;30662;51.210;7.656;2023-04-05T10:35:45;151316.56;;;10.07;38.06
44926;BME280;30662;51.210;7.656;2023-04-05T10:38:25;151407.75;;;10.44;37.12
44926;BME280;30662;51.210;7.656;2023-04-05T10:40:53;151434.31;;;10.55;35.80
44926;BME280;30662;51.210;7.656;2023-04-05T10:43:23;151424.19;;;10.51;34.83
44926;BME280;30662;51.210;7.656;2023-04-05T10:45:52;151548.25;;;11.00;35.23
44926;BME280;30662;51.210;7.656;2023-04-05T10:51:23;151642.00;;;11.38;33.04
44926;BME280;30662;51.210;7.656;2023-04-05T10:53:53;151805.47;;;12.04;33.16
44926;BME280;30662;51.210;7.656;2023-04-05T10:56:21;151802.97;;;12.03;34.26
44926;BME280;30662;51.210;7.656;2023-04-05T10:58:48;152052.66;;;13.03;32.36
44926;BME280;30662;51.210;7.656;2023-04-05T11:01:15;151934.75;;;12.56;31.90
44926;BME280;30662;51.210;7.656;2023-04-05T11:03:48;151877.72;;;12.33;31.45
44926;BME280;30662;51.210;7.656;2023-04-05T11:08:46;152023.53;;;12.91;30.78
44926;BME280;30662;51.210;7.656;2023-04-05T11:11:15;152067.88;;;13.09;28.81
44926;BME280;30662;51.210;7.656;2023-04-05T11:13:51;152033.63;;;12.95;29.75
44926;BME280;30662;51.210;7.656;2023-04-05T11:16:18;152140.22;;;13.38;28.45
44926;BME280;30662;51.210;7.656;2023-04-05T11:18:46;152103.44;;;13.23;27.91
44926;BME280;30662;51.210;7.656;2023-04-05T11:21:20;152102.19;;;13.23;28.84
44926;BME280;30662;51.210;7.656;2023-04-05T11:24:07;152237.94;;;13.77;28.51
44926;BME280;30662;51.210;7.656;2023-04-05T11:26:52;152218.91;;;13.70;28.75
44926;BME280;30662;51.210;7.656;2023-04-05T11:29:45;152060.28;;;13.06;29.78
44926;BME280;30662;51.210;7.656;2023-04-05T11:32:12;152170.69;;;13.50;29.27
44926;BME280;30662;51.210;7.656;2023-04-05T11:34:41;152259.50;;;13.86;29.00
44926;BME280;30662;51.210;7.656;2023-04-05T11:37:07;152361.03;;;14.27;30.93
44926;BME280;30662;51.210;7.656;2023-04-05T11:39:34;152510.88;;;14.87;29.28
44926;BME280;30662;51.210;7.656;2023-04-05T11:42:09;152296.28;;;14.01;29.26
44926;BME280;30662;51.210;7.656;2023-04-05T11:44:45;152369.91;;;14.30;28.82
44926;BME280;30662;51.210;7.656;2023-04-05T11:47:15;152413.09;;;14.48;29.48
44926;BME280;30662;51.210;7.656;2023-04-05T11:49:41;152409.28;;;14.46;27.59
44926;BME280;30662;51.210;7.656;2023-04-05T11:54:37;152307.75;;;14.05;29.33
44926;BME280;30662;51.210;7.656;2023-04-05T11:57:04;152467.69;;;14.70;28.82
44926;BME280;30662;51.210;7.656;2023-04-05T11:59:32;152555.31;;;15.05;28.62
44926;BME280;30662;51.210;7.656;2023-04-05T12:02:03;152463.88;;;14.68;27.72
44926;BME280;30662;51.210;7.656;2023-04-05T12:04:35;152664.53;;;15.49;26.98
44926;BME280;30662;51.210;7.656;2023-04-05T12:07:18;152532.47;;;14.96;28.17
44926;BME280;30662;51.210;7.656;2023-04-05T12:10:04;152307.75;;;14.05;28.97
44926;BME280;30662;51.210;7.656;2023-04-05T12:12:36;152183.38;;;13.56;30.00
44926;BME280;30662;51.210;7.656;2023-04-05T12:15:04;151731.94;;;11.74;30.24
44926;BME280;30662;51.210;7.656;2023-04-05T12:17:37;151626.78;;;11.32;32.37
44926;BME280;30662;51.210;7.656;2023-04-05T12:20:04;151688.84;;;11.57;33.15
44926;BME280;30662;51.210;7.656;2023-04-05T12:22:30;151664.78;;;11.47;32.90
44926;BME280;30662;51.210;7.656;2023-04-05T12:24:57;151606.53;;;11.24;32.28
44926;BME280;30662;51.210;7.656;2023-04-05T12:27:24;151586.28;;;11.16;33.95
44926;BME280;30662;51.210;7.656;2023-04-05T12:30:17;151658.47;;;11.45;34.35
44926;BME280;30662;51.210;7.656;2023-04-05T12:35:11;151725.56;;;11.72;33.73
44926;BME280;30662;51.210;7.656;2023-04-05T12:37:38;151629.31;;;11.33;34.52
44926;BME280;30662;51.210;7.656;2023-04-05T12:40:05;151471.00;;;10.69;34.03
44926;BME280;30662;51.210;7.656;2023-04-05T12:42:35;151457.06;;;10.64;35.45
44926;BME280;30662;51.210;7.656;2023-04-05T12:45:08;151406.47;;;10.43;36.09
44926;BME280;30662;51.210;7.656;2023-04-05T12:48:13;151382.41;;;10.34;36.15
44926;BME280;30662;51.210;7.656;2023-04-05T12:50:47;151271.00;;;9.89;36.31
44926;BME280;30662;51.210;7.656;2023-04-05T12:53:18;151263.41;;;9.86;37.07
44926;BME280;30662;51.210;7.656;2023-04-05T12:55:55;151321.63;;;10.09;36.03
44926;BME280;30662;51.210;7.656;2023-04-05T12:58:22;151341.84;;;10.17;35.49
44926;BME280;30662;51.210;7.656;2023-04-05T13:00:57;151279.88;;;9.92;35.53
44926;BME280;30662;51.210;7.656;2023-04-05T13:03:25;151372.28;;;10.30;36.74
44926;BME280;30662;51.210;7.656;2023-04-05T13:05:51;151360.88;;;10.25;36.16
44926;BME280;30662;51.210;7.656;2023-04-05T13:08:18;151336.81;;;10.15;35.93
44926;BME280;30662;51.210;7.656;2023-04-05T13:10:44;151502.69;;;10.82;34.82
44926;BME280;30662;51.210;7.656;2023-04-05T13:13:12;151630.59;;;11.33;33.09
44926;BME280;30662;51.210;7.656;2023-04-05T13:15:38;151856.19;;;12.24;31.63
44926;BME280;30662;51.210;7.656;2023-04-05T13:18:04;151905.59;;;12.44;31.03
44926;BME280;30662;51.210;7.656;2023-04-05T13:20:30;152021.00;;;12.90;30.71
44926;BME280;30662;51.210;7.656;2023-04-05T13:22:57;152116.13;;;13.29;31.53
44926;BME280;30662;51.210;7.656;2023-04-05T13:25:23;152021.00;;;12.90;30.89